KIRS/IRS METAR and TAF weather

Enter ICAO airport designator
Station Type Date Time Source
KIRS METAR 2020/04/06 18:15 UTC NOAA

KIRS 061815Z AUTO 20008KT 10SM CLR 15/M06 A3007 RMK AO2 T01541058


Station Type Date Time Source
KIRS Decoded METAR 2020/04/06 18:15 UTC NOAA

Sturgis, Kirsch Municipal Airport, MI, United States (KIRS) 41-48-46N 085-26-21W
Apr 06, 2020 - 02:15 PM EDT / 2020.04.06 1815 UTC
Wind: from the SSW (200 degrees) at 9 MPH (8 KT):0
Visibility: 10 mile(s):0
Sky conditions: clear
Temperature: 59.7 F (15.4 C)
Dew Point: 21.6 F (-5.8 C)
Relative Humidity: 22%
Pressure (altimeter): 30.07 in. Hg (1018 hPa)
ob: KIRS 061815Z AUTO 20008KT 10SM CLR 15/M06 A3007 RMK AO2 T01541058
cycle: 18

Station Type Date Time Source
KIRS TAF UTC NOAA

Error!

Example: see airport list